Wilson Lista — 8PRW — position and weather

sailwx.info

Track history (hours):
 
Tides and Currents Weather Stations Pressure Air Temp Water Temp Dewpoint Dewpoint Depression Visibility Wind Speed Wind Dir Waves Ship Positions

Wilson Lista

Last reported at 2015-Apr-26 09:33 UTC. Time now 2015-Apr-26 09:44 UTC.
Position N 58°17' E 011°00'.

Length 88 m; draft 4.9 m.

Type: Cargo ship. MMSI: 314188000.

Date/timePositionNaut miles runAvg speedWind from/ knotsBaromVisibWave heightAir tempDewpointWater temp
2015-Apr-26 09:33N 58°17' E 011°00'7 7.1
2015-Apr-26 08:33N 58°24' E 010°57'7 7.4
2015-Apr-26 07:33N 58°31' E 010°53'8 7.8
2015-Apr-26 06:33N 58°39' E 010°49'8 8.2
2015-Apr-26 05:32N 58°47' E 010°45'9 8.2
2015-Apr-26 04:27N 58°56' E 010°41'7 7.5
2015-Apr-26 03:33N 59°02' E 010°47'7 6.5
2015-Apr-26 02:31N 59°05' E 010°58'9 9.2
2015-Apr-26 01:33N 59°14' E 010°59'3 0.2
2015-Apr-25 09:21N 59°16' E 011°05'0 0.1
2015-Apr-25 08:33N 59°16' E 011°05'1 0.0
2015-Apr-24 11:11N 59°16' E 011°06'3 5.2
2015-Apr-24 10:34N 59°15' E 011°00'6 6.5
2015-Apr-24 09:33N 59°08' E 010°58'8 7.9
2015-Apr-24 08:33N 59°01' E 010°52'8 8.4
2015-Apr-24 07:34N 58°56' E 010°38'257 9.4
2015-Apr-23 04:18N 55°20' E 006°19'78 9.5
2015-Apr-22 20:06N 54°15' E 005°07'5 9.5
2015-Apr-22 19:32N 54°10' E 005°02'9 9.0
2015-Apr-22 18:33N 54°02' E 004°55'21 8.9
2015-Apr-22 16:09N 53°41' E 004°51'8 8.4
2015-Apr-22 15:11N 53°33' E 004°48'5 7.8
2015-Apr-22 14:33N 53°29' E 004°46'8 7.8
2015-Apr-22 13:33N 53°22' E 004°53'10 9.7
2015-Apr-22 12:33N 53°19' E 005°09'8 8.2
2015-Apr-22 11:33N 53°13' E 005°18'5 5.0
2015-Apr-22 10:32N 53°11' E 005°26'0 0.0
2015-Apr-22 09:32N 53°11' E 005°26'0 0.0
2015-Apr-22 08:31N 53°11' E 005°26'0 0.0
2015-Apr-22 07:31N 53°11' E 005°26'0 0.0
2015-Apr-22 06:33N 53°11' E 005°26'0 0.0
2015-Apr-22 05:33N 53°11' E 005°26'0 0.0
2015-Apr-22 04:33N 53°11' E 005°26'0 0.0
2015-Apr-22 03:32N 53°11' E 005°26'0 0.0
2015-Apr-22 02:32N 53°11' E 005°26'0 0.0
2015-Apr-22 01:31N 53°11' E 005°26'0 0.0
2015-Apr-22 00:31N 53°11' E 005°26'0 0.0
2015-Apr-21 23:30N 53°11' E 005°26'0 0.0
2015-Apr-21 22:33N 53°11' E 005°26'0 0.0
2015-Apr-21 21:32N 53°11' E 005°26'0 0.0
2015-Apr-21 20:31N 53°11' E 005°26'0 0.0
2015-Apr-21 19:33N 53°11' E 005°26'0 0.0
2015-Apr-21 18:33N 53°11' E 005°26'0 0.0
2015-Apr-21 17:32N 53°11' E 005°26'0 0.0
2015-Apr-21 16:32N 53°11' E 005°26'0 0.1
2015-Apr-21 15:32N 53°11' E 005°26'0 0.0
2015-Apr-21 14:31N 53°11' E 005°26'0 0.0
2015-Apr-21 13:31N 53°11' E 005°26'0 0.0
2015-Apr-21 12:31N 53°11' E 005°26'0 0.0
2015-Apr-21 11:31N 53°11' E 005°26'0 0.0
2015-Apr-21 10:33N 53°11' E 005°26'0 0.0
2015-Apr-21 09:33N 53°11' E 005°26'0 0.0
2015-Apr-21 08:33N 53°11' E 005°26'6 5.9
2015-Apr-21 07:33N 53°14' E 005°17'10 9.7
2015-Apr-21 06:33N 53°19' E 005°03'9 8.9
2015-Apr-21 05:33N 53°27' E 005°00'8 7.8
2015-Apr-21 04:33N 53°34' E 005°07'1212.4
2015-Apr-21 03:33N 53°38' E 005°27'1212.5
2015-Apr-21 02:33N 53°42' E 005°47'1412.2
2015-Apr-21 01:25N 53°46' E 006°09'1111.7
2015-Apr-21 00:29N 53°50' E 006°27'1010.9
2015-Apr-20 23:34N 53°52' E 006°44'1010.2
2015-Apr-20 22:32N 53°54' E 007°01'10 9.9
2015-Apr-20 21:33N 53°57' E 007°17'10 9.9
2015-Apr-20 20:33N 53°59' E 007°33'9 9.2
2015-Apr-20 19:33N 53°53' E 007°46'1211.7
2015-Apr-20 18:33N 53°50' E 008°05'1313.2
2015-Apr-20 17:33N 53°41' E 008°21'1212.2
2015-Apr-20 16:34N 53°30' E 008°31'1413.4
2015-Apr-20 15:32N 53°17' E 008°29'10 9.9
2015-Apr-20 14:33N 53°09' E 008°38'4 3.8
2015-Apr-20 13:33N 53°07' E 008°44'0 0.0
2015-Apr-20 12:32N 53°07' E 008°44'0 0.0
2015-Apr-20 11:32N 53°07' E 008°44'0 0.0
2015-Apr-20 10:31N 53°07' E 008°44'0 0.0
2015-Apr-20 09:33N 53°07' E 008°44'0 0.0
2015-Apr-20 08:33N 53°07' E 008°44'0 0.0
2015-Apr-20 07:33N 53°07' E 008°44'0 0.0
2015-Apr-20 06:32N 53°07' E 008°44'0 0.0
2015-Apr-20 05:32N 53°07' E 008°44'0 0.0
2015-Apr-20 04:31N 53°07' E 008°44'0 0.0
2015-Apr-20 03:31N 53°07' E 008°44'0 0.0
2015-Apr-20 02:33N 53°07' E 008°44'0 0.0
2015-Apr-20 01:33N 53°07' E 008°44'0 0.0
2015-Apr-20 00:30N 53°07' E 008°44'0 0.0
2015-Apr-19 23:32N 53°07' E 008°44'0 0.0
2015-Apr-19 22:32N 53°07' E 008°44'0 0.0
2015-Apr-19 21:28N 53°07' E 008°44'0 0.0
2015-Apr-19 20:31N 53°07' E 008°44'0 0.0
2015-Apr-19 19:33N 53°07' E 008°44'0 0.0
2015-Apr-19 18:33N 53°07' E 008°44'0 0.0
2015-Apr-19 17:33N 53°07' E 008°44'0 0.0
2015-Apr-19 16:32N 53°07' E 008°44'0 0.0
2015-Apr-19 15:32N 53°07' E 008°44'0 0.0
2015-Apr-19 14:31N 53°07' E 008°44'0 0.2
2015-Apr-19 13:34N 53°07' E 008°44'1 0.7
2015-Apr-19 12:34N 53°07' E 008°42'5 5.5
2015-Apr-19 11:34N 53°10' E 008°35'1010.1
2015-Apr-19 10:33N 53°20' E 008°30'1111.3
2015-Apr-19 09:34N 53°31' E 008°33'0 0.3
2015-Apr-19 08:34N 53°31' E 008°34'0 0.1
2015-Apr-19 07:33N 53°31' E 008°34'0 0.0
2015-Apr-19 06:34N 53°31' E 008°34'0 0.0
2015-Apr-19 05:33N 53°31' E 008°34'0 0.0
2015-Apr-19 04:33N 53°31' E 008°34'0 0.0
2015-Apr-19 03:34N 53°31' E 008°34'0 0.0
2015-Apr-19 02:33N 53°31' E 008°34'0 0.0
2015-Apr-19 01:34N 53°31' E 008°34'0 0.1
2015-Apr-19 00:34N 53°31' E 008°34'0 0.0
2015-Apr-18 23:33N 53°31' E 008°34'0 0.0
2015-Apr-18 22:34N 53°31' E 008°34'0 0.0
2015-Apr-18 21:33N 53°31' E 008°34'0 0.0
2015-Apr-18 20:34N 53°31' E 008°34'0 0.1
2015-Apr-18 19:34N 53°31' E 008°34'0 0.1
2015-Apr-18 18:33N 53°31' E 008°34'0 0.0
2015-Apr-18 17:33N 53°31' E 008°34'0 0.0
2015-Apr-18 16:33N 53°31' E 008°34'0 0.0
2015-Apr-18 15:33N 53°31' E 008°34'0 0.0
2015-Apr-18 14:34N 53°31' E 008°34'0 0.0
2015-Apr-18 13:33N 53°31' E 008°34'0 0.1
2015-Apr-18 12:33N 53°31' E 008°34'0 0.0
2015-Apr-18 11:33N 53°31' E 008°34'0 0.0
2015-Apr-18 10:33N 53°31' E 008°34'0 0.0
2015-Apr-18 09:33N 53°31' E 008°34'0 0.0
2015-Apr-18 08:33N 53°31' E 008°34'0 0.0
2015-Apr-18 07:33N 53°31' E 008°34'0 0.1
2015-Apr-18 06:33N 53°31' E 008°34'0 0.0
2015-Apr-18 05:34N 53°31' E 008°34'0 0.0
2015-Apr-18 04:33N 53°31' E 008°34'0 0.0
2015-Apr-18 03:33N 53°31' E 008°34'0 0.0
2015-Apr-18 02:33N 53°31' E 008°34'0 0.0
2015-Apr-18 01:34N 53°31' E 008°34'0 0.0
2015-Apr-18 00:34N 53°31' E 008°34'0 0.1
2015-Apr-17 23:33N 53°31' E 008°34'0 0.0
2015-Apr-17 22:34N 53°31' E 008°34'0 0.0
2015-Apr-17 21:34N 53°31' E 008°34'0 0.0
2015-Apr-17 20:33N 53°31' E 008°34'0 0.0
2015-Apr-17 19:33N 53°31' E 008°34'0 0.0
2015-Apr-17 18:33N 53°31' E 008°34'0 0.1
2015-Apr-17 17:33N 53°31' E 008°34'0 0.0
2015-Apr-17 16:33N 53°31' E 008°34'0 0.0
2015-Apr-17 15:33N 53°31' E 008°34'0 0.0
2015-Apr-17 14:33N 53°31' E 008°34'0 0.0
2015-Apr-17 13:33N 53°31' E 008°34'0 0.0
2015-Apr-17 12:33N 53°31' E 008°34'0 0.1
2015-Apr-17 11:33N 53°31' E 008°34'0 0.0
2015-Apr-17 10:33N 53°31' E 008°34'0 0.0
2015-Apr-17 09:33N 53°31' E 008°34'0 0.0
2015-Apr-17 08:33N 53°31' E 008°34'0 0.0
2015-Apr-17 07:33N 53°31' E 008°34'0 0.0
2015-Apr-17 06:33N 53°31' E 008°34'0 0.1
2015-Apr-17 05:33N 53°31' E 008°34'0 0.1
2015-Apr-17 04:33N 53°31' E 008°34'0 0.0
2015-Apr-17 03:33N 53°31' E 008°34'0 0.0
2015-Apr-17 02:34N 53°31' E 008°34'0 0.0
2015-Apr-17 01:33N 53°31' E 008°34'0 0.0
2015-Apr-17 00:33N 53°31' E 008°34'0 0.0
2015-Apr-16 23:33N 53°31' E 008°34'6 6.5
2015-Apr-16 22:33N 53°37' E 008°29'1010.2
2015-Apr-16 21:33N 53°43' E 008°15'1110.6
2015-Apr-16 20:33N 53°51' E 008°02'1210.6
2015-Apr-16 19:28N 53°53' E 007°43'1010.6
2015-Apr-16 18:31N 53°53' E 007°26'34 7.8
2015-Apr-16 14:10N 53°35' E 006°37'712.2
2015-Apr-16 13:33N 53°31' E 006°47'1313.0
2015-Apr-16 12:33N 53°21' E 006°59'1111.3
2015-Apr-16 11:33N 53°19' E 007°18'9 7.2
2015-Apr-16 10:17N 53°11' E 007°23'  
Track history (hours):
 
Tides and Currents Weather Stations Pressure Air Temp Water Temp Dewpoint Dewpoint Depression Visibility Wind Speed Wind Dir Waves Ship Positions

Wilson Lista

Last reported at 2015-Apr-26 09:33 UTC. Time now 2015-Apr-26 09:44 UTC.
Position N 58°17' E 011°00'.

Length 88 m; draft 4.9 m.

Type: Cargo ship. MMSI: 314188000.

Date/timePositionNaut miles runAvg speedWind from/ knotsBaromVisibWave heightAir tempDewpointWater temp
2015-Apr-26 09:33N 58°17' E 011°00'7 7.1
2015-Apr-26 08:33N 58°24' E 010°57'7 7.4
2015-Apr-26 07:33N 58°31' E 010°53'8 7.8
2015-Apr-26 06:33N 58°39' E 010°49'8 8.2
2015-Apr-26 05:32N 58°47' E 010°45'9 8.2
2015-Apr-26 04:27N 58°56' E 010°41'7 7.5
2015-Apr-26 03:33N 59°02' E 010°47'7 6.5
2015-Apr-26 02:31N 59°05' E 010°58'9 9.2
2015-Apr-26 01:33N 59°14' E 010°59'3 0.2
2015-Apr-25 09:21N 59°16' E 011°05'0 0.1
2015-Apr-25 08:33N 59°16' E 011°05'1 0.0
2015-Apr-24 11:11N 59°16' E 011°06'3 5.2
2015-Apr-24 10:34N 59°15' E 011°00'6 6.5
2015-Apr-24 09:33N 59°08' E 010°58'8 7.9
2015-Apr-24 08:33N 59°01' E 010°52'8 8.4
2015-Apr-24 07:34N 58°56' E 010°38'257 9.4
2015-Apr-23 04:18N 55°20' E 006°19'78 9.5
2015-Apr-22 20:06N 54°15' E 005°07'5 9.5
2015-Apr-22 19:32N 54°10' E 005°02'9 9.0
2015-Apr-22 18:33N 54°02' E 004°55'21 8.9
2015-Apr-22 16:09N 53°41' E 004°51'8 8.4
2015-Apr-22 15:11N 53°33' E 004°48'5 7.8
2015-Apr-22 14:33N 53°29' E 004°46'8 7.8
2015-Apr-22 13:33N 53°22' E 004°53'10 9.7
2015-Apr-22 12:33N 53°19' E 005°09'8 8.2
2015-Apr-22 11:33N 53°13' E 005°18'5 5.0
2015-Apr-22 10:32N 53°11' E 005°26'0 0.0
2015-Apr-22 09:32N 53°11' E 005°26'0 0.0
2015-Apr-22 08:31N 53°11' E 005°26'0 0.0
2015-Apr-22 07:31N 53°11' E 005°26'0 0.0
2015-Apr-22 06:33N 53°11' E 005°26'0 0.0
2015-Apr-22 05:33N 53°11' E 005°26'0 0.0
2015-Apr-22 04:33N 53°11' E 005°26'0 0.0
2015-Apr-22 03:32N 53°11' E 005°26'0 0.0
2015-Apr-22 02:32N 53°11' E 005°26'0 0.0
2015-Apr-22 01:31N 53°11' E 005°26'0 0.0
2015-Apr-22 00:31N 53°11' E 005°26'0 0.0
2015-Apr-21 23:30N 53°11' E 005°26'0 0.0
2015-Apr-21 22:33N 53°11' E 005°26'0 0.0
2015-Apr-21 21:32N 53°11' E 005°26'0 0.0
2015-Apr-21 20:31N 53°11' E 005°26'0 0.0
2015-Apr-21 19:33N 53°11' E 005°26'0 0.0
2015-Apr-21 18:33N 53°11' E 005°26'0 0.0
2015-Apr-21 17:32N 53°11' E 005°26'0 0.0
2015-Apr-21 16:32N 53°11' E 005°26'0 0.1
2015-Apr-21 15:32N 53°11' E 005°26'0 0.0
2015-Apr-21 14:31N 53°11' E 005°26'0 0.0
2015-Apr-21 13:31N 53°11' E 005°26'0 0.0
2015-Apr-21 12:31N 53°11' E 005°26'0 0.0
2015-Apr-21 11:31N 53°11' E 005°26'0 0.0
2015-Apr-21 10:33N 53°11' E 005°26'0 0.0
2015-Apr-21 09:33N 53°11' E 005°26'0 0.0
2015-Apr-21 08:33N 53°11' E 005°26'6 5.9
2015-Apr-21 07:33N 53°14' E 005°17'10 9.7
2015-Apr-21 06:33N 53°19' E 005°03'9 8.9
2015-Apr-21 05:33N 53°27' E 005°00'8 7.8
2015-Apr-21 04:33N 53°34' E 005°07'1212.4
2015-Apr-21 03:33N 53°38' E 005°27'1212.5
2015-Apr-21 02:33N 53°42' E 005°47'1412.2
2015-Apr-21 01:25N 53°46' E 006°09'1111.7
2015-Apr-21 00:29N 53°50' E 006°27'1010.9
2015-Apr-20 23:34N 53°52' E 006°44'1010.2
2015-Apr-20 22:32N 53°54' E 007°01'10 9.9
2015-Apr-20 21:33N 53°57' E 007°17'10 9.9
2015-Apr-20 20:33N 53°59' E 007°33'9 9.2
2015-Apr-20 19:33N 53°53' E 007°46'1211.7
2015-Apr-20 18:33N 53°50' E 008°05'1313.2
2015-Apr-20 17:33N 53°41' E 008°21'1212.2
2015-Apr-20 16:34N 53°30' E 008°31'1413.4
2015-Apr-20 15:32N 53°17' E 008°29'10 9.9
2015-Apr-20 14:33N 53°09' E 008°38'4 3.8
2015-Apr-20 13:33N 53°07' E 008°44'0 0.0
2015-Apr-20 12:32N 53°07' E 008°44'0 0.0
2015-Apr-20 11:32N 53°07' E 008°44'0 0.0
2015-Apr-20 10:31N 53°07' E 008°44'0 0.0
2015-Apr-20 09:33N 53°07' E 008°44'0 0.0
2015-Apr-20 08:33N 53°07' E 008°44'0 0.0
2015-Apr-20 07:33N 53°07' E 008°44'0 0.0
2015-Apr-20 06:32N 53°07' E 008°44'0 0.0
2015-Apr-20 05:32N 53°07' E 008°44'0 0.0
2015-Apr-20 04:31N 53°07' E 008°44'0 0.0
2015-Apr-20 03:31N 53°07' E 008°44'0 0.0
2015-Apr-20 02:33N 53°07' E 008°44'0 0.0
2015-Apr-20 01:33N 53°07' E 008°44'0 0.0
2015-Apr-20 00:30N 53°07' E 008°44'0 0.0
2015-Apr-19 23:32N 53°07' E 008°44'0 0.0
2015-Apr-19 22:32N 53°07' E 008°44'0 0.0
2015-Apr-19 21:28N 53°07' E 008°44'0 0.0
2015-Apr-19 20:31N 53°07' E 008°44'0 0.0
2015-Apr-19 19:33N 53°07' E 008°44'0 0.0
2015-Apr-19 18:33N 53°07' E 008°44'0 0.0
2015-Apr-19 17:33N 53°07' E 008°44'0 0.0
2015-Apr-19 16:32N 53°07' E 008°44'0 0.0
2015-Apr-19 15:32N 53°07' E 008°44'0 0.0
2015-Apr-19 14:31N 53°07' E 008°44'0 0.2
2015-Apr-19 13:34N 53°07' E 008°44'1 0.7
2015-Apr-19 12:34N 53°07' E 008°42'5 5.5
2015-Apr-19 11:34N 53°10' E 008°35'1010.1
2015-Apr-19 10:33N 53°20' E 008°30'1111.3
2015-Apr-19 09:34N 53°31' E 008°33'0 0.3
2015-Apr-19 08:34N 53°31' E 008°34'0 0.1
2015-Apr-19 07:33N 53°31' E 008°34'0 0.0
2015-Apr-19 06:34N 53°31' E 008°34'0 0.0
2015-Apr-19 05:33N 53°31' E 008°34'0 0.0
2015-Apr-19 04:33N 53°31' E 008°34'0 0.0
2015-Apr-19 03:34N 53°31' E 008°34'0 0.0
2015-Apr-19 02:33N 53°31' E 008°34'0 0.0
2015-Apr-19 01:34N 53°31' E 008°34'0 0.1
2015-Apr-19 00:34N 53°31' E 008°34'0 0.0
2015-Apr-18 23:33N 53°31' E 008°34'0 0.0
2015-Apr-18 22:34N 53°31' E 008°34'0 0.0
2015-Apr-18 21:33N 53°31' E 008°34'0 0.0
2015-Apr-18 20:34N 53°31' E 008°34'0 0.1
2015-Apr-18 19:34N 53°31' E 008°34'0 0.1
2015-Apr-18 18:33N 53°31' E 008°34'0 0.0
2015-Apr-18 17:33N 53°31' E 008°34'0 0.0
2015-Apr-18 16:33N 53°31' E 008°34'0 0.0
2015-Apr-18 15:33N 53°31' E 008°34'0 0.0
2015-Apr-18 14:34N 53°31' E 008°34'0 0.0
2015-Apr-18 13:33N 53°31' E 008°34'0 0.1
2015-Apr-18 12:33N 53°31' E 008°34'0 0.0
2015-Apr-18 11:33N 53°31' E 008°34'0 0.0
2015-Apr-18 10:33N 53°31' E 008°34'0 0.0
2015-Apr-18 09:33N 53°31' E 008°34'0 0.0
2015-Apr-18 08:33N 53°31' E 008°34'0 0.0
2015-Apr-18 07:33N 53°31' E 008°34'0 0.1
2015-Apr-18 06:33N 53°31' E 008°34'0 0.0
2015-Apr-18 05:34N 53°31' E 008°34'0 0.0
2015-Apr-18 04:33N 53°31' E 008°34'0 0.0
2015-Apr-18 03:33N 53°31' E 008°34'0 0.0
2015-Apr-18 02:33N 53°31' E 008°34'0 0.0
2015-Apr-18 01:34N 53°31' E 008°34'0 0.0
2015-Apr-18 00:34N 53°31' E 008°34'0 0.1
2015-Apr-17 23:33N 53°31' E 008°34'0 0.0
2015-Apr-17 22:34N 53°31' E 008°34'0 0.0
2015-Apr-17 21:34N 53°31' E 008°34'0 0.0
2015-Apr-17 20:33N 53°31' E 008°34'0 0.0
2015-Apr-17 19:33N 53°31' E 008°34'0 0.0
2015-Apr-17 18:33N 53°31' E 008°34'0 0.1
2015-Apr-17 17:33N 53°31' E 008°34'0 0.0
2015-Apr-17 16:33N 53°31' E 008°34'0 0.0
2015-Apr-17 15:33N 53°31' E 008°34'0 0.0
2015-Apr-17 14:33N 53°31' E 008°34'0 0.0
2015-Apr-17 13:33N 53°31' E 008°34'0 0.0
2015-Apr-17 12:33N 53°31' E 008°34'0 0.1
2015-Apr-17 11:33N 53°31' E 008°34'0 0.0
2015-Apr-17 10:33N 53°31' E 008°34'0 0.0
2015-Apr-17 09:33N 53°31' E 008°34'0 0.0
2015-Apr-17 08:33N 53°31' E 008°34'0 0.0
2015-Apr-17 07:33N 53°31' E 008°34'0 0.0
2015-Apr-17 06:33N 53°31' E 008°34'0 0.1
2015-Apr-17 05:33N 53°31' E 008°34'0 0.1
2015-Apr-17 04:33N 53°31' E 008°34'0 0.0
2015-Apr-17 03:33N 53°31' E 008°34'0 0.0
2015-Apr-17 02:34N 53°31' E 008°34'0 0.0
2015-Apr-17 01:33N 53°31' E 008°34'0 0.0
2015-Apr-17 00:33N 53°31' E 008°34'0 0.0
2015-Apr-16 23:33N 53°31' E 008°34'6 6.5
2015-Apr-16 22:33N 53°37' E 008°29'1010.2
2015-Apr-16 21:33N 53°43' E 008°15'1110.6
2015-Apr-16 20:33N 53°51' E 008°02'1210.6
2015-Apr-16 19:28N 53°53' E 007°43'1010.6
2015-Apr-16 18:31N 53°53' E 007°26'34 7.8
2015-Apr-16 14:10N 53°35' E 006°37'712.2
2015-Apr-16 13:33N 53°31' E 006°47'1313.0
2015-Apr-16 12:33N 53°21' E 006°59'1111.3
2015-Apr-16 11:33N 53°19' E 007°18'9 7.2
2015-Apr-16 10:17N 53°11' E 007°23'  

Dump ship's entire track history